sensor_id;sensor_type;location;lat;lon;timestamp;pressure;altitude;pressure_sealevel;temperature;humidity
59419;BME280;45224;50.904;6.038;2024-02-14T00:00:25;99717.28;;;8.10;100.00
59419;BME280;45224;50.904;6.038;2024-02-14T00:01:56;99719.97;;;8.20;100.00
59419;BME280;45224;50.904;6.038;2024-02-14T00:03:26;99726.84;;;8.25;100.00
59419;BME280;45224;50.904;6.038;2024-02-14T00:04:57;99730.22;;;8.16;100.00
59419;BME280;45224;50.904;6.038;2024-02-14T00:06:27;99715.56;;;8.10;100.00
59419;BME280;45224;50.904;6.038;2024-02-14T00:07:58;99727.69;;;8.20;100.00
59419;BME280;45224;50.904;6.038;2024-02-14T00:09:28;99714.78;;;8.17;100.00
59419;BME280;45224;50.904;6.038;2024-02-14T00:10:58;99721.69;;;8.23;100.00
59419;BME280;45224;50.904;6.038;2024-02-14T00:12:31;99733.59;;;8.10;100.00
59419;BME280;45224;50.904;6.038;2024-02-14T00:14:01;99743.97;;;8.18;100.00
59419;BME280;45224;50.904;6.038;2024-02-14T00:15:32;99725.06;;;8.16;100.00
59419;BME280;45224;50.904;6.038;2024-02-14T00:17:03;99731.91;;;8.14;100.00
59419;BME280;45224;50.904;6.038;2024-02-14T00:18:35;99728.53;;;8.21;100.00
59419;BME280;45224;50.904;6.038;2024-02-14T00:20:06;99726.75;;;8.12;100.00
59419;BME280;45224;50.904;6.038;2024-02-14T00:21:37;99734.44;;;8.09;100.00
59419;BME280;45224;50.904;6.038;2024-02-14T00:23:08;99727.59;;;8.11;100.00
59419;BME280;45224;50.904;6.038;2024-02-14T00:24:39;99725.84;;;8.10;100.00
59419;BME280;45224;50.904;6.038;2024-02-14T00:26:09;99726.81;;;8.20;100.00
59419;BME280;45224;50.904;6.038;2024-02-14T00:27:40;99726.84;;;8.26;100.00
59419;BME280;45224;50.904;6.038;2024-02-14T00:29:11;99730.31;;;8.28;100.00
59419;BME280;45224;50.904;6.038;2024-02-14T00:30:41;99714.84;;;8.27;100.00
59419;BME280;45224;50.904;6.038;2024-02-14T00:32:12;99722.53;;;8.20;100.00
59419;BME280;45224;50.904;6.038;2024-02-14T00:33:43;99712.22;;;8.20;100.00
59419;BME280;45224;50.904;6.038;2024-02-14T00:35:16;99718.22;;;8.19;100.00
59419;BME280;45224;50.904;6.038;2024-02-14T00:36:46;99709.63;;;8.17;100.00
59419;BME280;45224;50.904;6.038;2024-02-14T00:38:17;99720.00;;;8.23;100.00
59419;BME280;45224;50.904;6.038;2024-02-14T00:39:47;99710.53;;;8.22;100.00
59419;BME280;45224;50.904;6.038;2024-02-14T00:41:22;99704.53;;;8.27;100.00
59419;BME280;45224;50.904;6.038;2024-02-14T00:42:52;99711.38;;;8.25;100.00
59419;BME280;45224;50.904;6.038;2024-02-14T00:44:23;99702.81;;;8.24;100.00
59419;BME280;45224;50.904;6.038;2024-02-14T00:45:53;99694.22;;;8.22;100.00
59419;BME280;45224;50.904;6.038;2024-02-14T00:47:24;99705.34;;;8.19;100.00
59419;BME280;45224;50.904;6.038;2024-02-14T00:48:54;99694.09;;;8.10;100.00
59419;BME280;45224;50.904;6.038;2024-02-14T00:50:25;99695.84;;;8.12;100.00
59419;BME280;45224;50.904;6.038;2024-02-14T00:51:55;99692.47;;;8.21;100.00
59419;BME280;45224;50.904;6.038;2024-02-14T00:53:26;99689.91;;;8.22;100.00
59419;BME280;45224;50.904;6.038;2024-02-14T00:54:56;99689.88;;;8.19;100.00
59419;BME280;45224;50.904;6.038;2024-02-14T00:56:27;99689.84;;;8.13;100.00
59419;BME280;45224;50.904;6.038;2024-02-14T00:57:58;99689.88;;;8.19;100.00
59419;BME280;45224;50.904;6.038;2024-02-14T00:59:28;99690.78;;;8.23;100.00
59419;BME280;45224;50.904;6.038;2024-02-14T01:00:58;99697.59;;;8.18;100.00
59419;BME280;45224;50.904;6.038;2024-02-14T01:02:29;99693.28;;;8.15;100.00
59419;BME280;45224;50.904;6.038;2024-02-14T01:04:00;99686.53;;;8.30;100.00
59419;BME280;45224;50.904;6.038;2024-02-14T01:05:30;99693.38;;;8.25;100.00
59419;BME280;45224;50.904;6.038;2024-02-14T01:07:01;99682.97;;;8.14;100.00
59419;BME280;45224;50.904;6.038;2024-02-14T01:08:31;99690.72;;;8.18;100.00
59419;BME280;45224;50.904;6.038;2024-02-14T01:10:02;99698.50;;;8.23;100.00
59419;BME280;45224;50.904;6.038;2024-02-14T01:11:33;99698.47;;;8.18;100.00
59419;BME280;45224;50.904;6.038;2024-02-14T01:13:03;99688.22;;;8.26;100.00
59419;BME280;45224;50.904;6.038;2024-02-14T01:14:35;99665.91;;;8.23;100.00
59419;BME280;45224;50.904;6.038;2024-02-14T01:16:05;99684.78;;;8.26;100.00
59419;BME280;45224;50.904;6.038;2024-02-14T01:17:36;99691.66;;;8.23;100.00
59419;BME280;45224;50.904;6.038;2024-02-14T01:19:08;99692.53;;;8.27;100.00
59419;BME280;45224;50.904;6.038;2024-02-14T01:20:38;99677.94;;;8.28;100.00
59419;BME280;45224;50.904;6.038;2024-02-14T01:22:09;99677.91;;;8.26;100.00
59419;BME280;45224;50.904;6.038;2024-02-14T01:23:39;99680.47;;;8.21;100.00
59419;BME280;45224;50.904;6.038;2024-02-14T01:25:10;99683.03;;;8.21;100.00
59419;BME280;45224;50.904;6.038;2024-02-14T01:26:41;99683.13;;;8.32;100.00
59419;BME280;45224;50.904;6.038;2024-02-14T01:28:11;99684.84;;;8.30;100.00
59419;BME280;45224;50.904;6.038;2024-02-14T01:29:42;99690.00;;;8.32;100.00
59419;BME280;45224;50.904;6.038;2024-02-14T01:31:12;99690.88;;;8.37;100.00
59419;BME280;45224;50.904;6.038;2024-02-14T01:32:43;99690.03;;;8.41;100.00
59419;BME280;45224;50.904;6.038;2024-02-14T01:34:14;99681.56;;;8.48;100.00
59419;BME280;45224;50.904;6.038;2024-02-14T01:35:45;99696.94;;;8.42;100.00
59419;BME280;45224;50.904;6.038;2024-02-14T01:37:15;99678.00;;;8.34;100.00
59419;BME280;45224;50.904;6.038;2024-02-14T01:38:46;99684.84;;;8.32;100.00
59419;BME280;45224;50.904;6.038;2024-02-14T01:40:16;99678.00;;;8.37;100.00
59419;BME280;45224;50.904;6.038;2024-02-14T01:41:48;99680.56;;;8.34;100.00
59419;BME280;45224;50.904;6.038;2024-02-14T01:43:19;99687.44;;;8.39;100.00
59419;BME280;45224;50.904;6.038;2024-02-14T01:44:51;99696.88;;;8.36;100.00
59419;BME280;45224;50.904;6.038;2024-02-14T01:46:21;99686.59;;;8.39;100.00
59419;BME280;45224;50.904;6.038;2024-02-14T01:47:51;99691.69;;;8.33;100.00
59419;BME280;45224;50.904;6.038;2024-02-14T01:49:23;99694.28;;;8.33;100.00
59419;BME280;45224;50.904;6.038;2024-02-14T01:50:54;99704.59;;;8.36;100.00
59419;BME280;45224;50.904;6.038;2024-02-14T01:52:24;99687.47;;;8.41;100.00
59419;BME280;45224;50.904;6.038;2024-02-14T01:53:55;99702.88;;;8.32;100.00
59419;BME280;45224;50.904;6.038;2024-02-14T01:55:27;99702.91;;;8.35;100.00
59419;BME280;45224;50.904;6.038;2024-02-14T01:57:00;99717.50;;;8.36;100.00
59419;BME280;45224;50.904;6.038;2024-02-14T01:58:30;99698.50;;;8.25;100.00
59419;BME280;45224;50.904;6.038;2024-02-14T02:00:02;99719.13;;;8.25;100.00
59419;BME280;45224;50.904;6.038;2024-02-14T02:01:42;99715.75;;;8.30;100.00
59419;BME280;45224;50.904;6.038;2024-02-14T02:03:13;99721.81;;;8.38;100.00
59419;BME280;45224;50.904;6.038;2024-02-14T02:04:44;99722.66;;;8.39;100.00
59419;BME280;45224;50.904;6.038;2024-02-14T02:06:15;99729.56;;;8.40;100.00
59419;BME280;45224;50.904;6.038;2024-02-14T02:07:46;99726.97;;;8.40;100.00
59419;BME280;45224;50.904;6.038;2024-02-14T02:09:18;99731.25;;;8.35;100.00
59419;BME280;45224;50.904;6.038;2024-02-14T02:10:49;99720.94;;;8.38;100.00
59419;BME280;45224;50.904;6.038;2024-02-14T02:12:19;99727.81;;;8.39;100.00
59419;BME280;45224;50.904;6.038;2024-02-14T02:13:50;99726.97;;;8.38;100.00
59419;BME280;45224;50.904;6.038;2024-02-14T02:15:20;99726.19;;;8.47;100.00
59419;BME280;45224;50.904;6.038;2024-02-14T02:16:51;99717.59;;;8.45;100.00
59419;BME280;45224;50.904;6.038;2024-02-14T02:18:22;99723.63;;;8.47;100.00
59419;BME280;45224;50.904;6.038;2024-02-14T02:19:56;99715.91;;;8.50;100.00
59419;BME280;45224;50.904;6.038;2024-02-14T02:21:28;99717.66;;;8.51;100.00
59419;BME280;45224;50.904;6.038;2024-02-14T02:22:59;99719.22;;;8.37;100.00
59419;BME280;45224;50.904;6.038;2024-02-14T02:24:29;99724.34;;;8.34;100.00
59419;BME280;45224;50.904;6.038;2024-02-14T02:26:01;99720.09;;;8.37;100.00
59419;BME280;45224;50.904;6.038;2024-02-14T02:27:33;99719.34;;;8.46;100.00
59419;BME280;45224;50.904;6.038;2024-02-14T02:29:05;99711.59;;;8.45;100.00
59419;BME280;45224;50.904;6.038;2024-02-14T02:30:36;99721.03;;;8.47;100.00
59419;BME280;45224;50.904;6.038;2024-02-14T02:32:07;99721.06;;;8.50;100.00
59419;BME280;45224;50.904;6.038;2024-02-14T02:33:40;99719.34;;;8.52;100.00
59419;BME280;45224;50.904;6.038;2024-02-14T02:35:10;99726.22;;;8.50;100.00
59419;BME280;45224;50.904;6.038;2024-02-14T02:36:41;99720.19;;;8.47;100.00
59419;BME280;45224;50.904;6.038;2024-02-14T02:38:11;99721.06;;;8.50;100.00
59419;BME280;45224;50.904;6.038;2024-02-14T02:39:42;99720.25;;;8.54;100.00
59419;BME280;45224;50.904;6.038;2024-02-14T02:41:13;99722.84;;;8.56;100.00
59419;BME280;45224;50.904;6.038;2024-02-14T02:42:43;99732.25;;;8.54;100.00
59419;BME280;45224;50.904;6.038;2024-02-14T02:44:15;99722.81;;;8.54;100.00
59419;BME280;45224;50.904;6.038;2024-02-14T02:45:45;99721.97;;;8.57;100.00
59419;BME280;45224;50.904;6.038;2024-02-14T02:47:16;99723.69;;;8.55;100.00
59419;BME280;45224;50.904;6.038;2024-02-14T02:48:47;99729.72;;;8.58;100.00
59419;BME280;45224;50.904;6.038;2024-02-14T02:50:18;99734.03;;;8.59;100.00
59419;BME280;45224;50.904;6.038;2024-02-14T02:51:49;99729.72;;;8.58;100.00
59419;BME280;45224;50.904;6.038;2024-02-14T02:53:20;99722.88;;;8.65;100.00
59419;BME280;45224;50.904;6.038;2024-02-14T02:54:51;99717.75;;;8.67;100.00
59419;BME280;45224;50.904;6.038;2024-02-14T02:56:22;99730.59;;;8.64;100.00
59419;BME280;45224;50.904;6.038;2024-02-14T02:57:57;99727.06;;;8.49;100.00
59419;BME280;45224;50.904;6.038;2024-02-14T02:59:29;99727.91;;;8.45;100.00
59419;BME280;45224;50.904;6.038;2024-02-14T03:01:00;99732.19;;;8.43;100.00
59419;BME280;45224;50.904;6.038;2024-02-14T03:02:31;99727.81;;;8.39;100.00
59419;BME280;45224;50.904;6.038;2024-02-14T03:04:01;99727.06;;;8.46;100.00
59419;BME280;45224;50.904;6.038;2024-02-14T03:05:32;99725.34;;;8.47;100.00
59419;BME280;45224;50.904;6.038;2024-02-14T03:07:04;99724.50;;;8.46;100.00
59419;BME280;45224;50.904;6.038;2024-02-14T03:08:36;99726.94;;;8.35;100.00
59419;BME280;45224;50.904;6.038;2024-02-14T03:10:08;99724.41;;;8.40;100.00
59419;BME280;45224;50.904;6.038;2024-02-14T03:11:38;99739.81;;;8.34;100.00
59419;BME280;45224;50.904;6.038;2024-02-14T03:13:09;99733.91;;;8.44;100.00
59419;BME280;45224;50.904;6.038;2024-02-14T03:14:41;99732.09;;;8.37;100.00
59419;BME280;45224;50.904;6.038;2024-02-14T03:16:14;99720.09;;;8.37;100.00
59419;BME280;45224;50.904;6.038;2024-02-14T03:17:45;99729.50;;;8.32;100.00
59419;BME280;45224;50.904;6.038;2024-02-14T03:19:16;99720.00;;;8.30;100.00
59419;BME280;45224;50.904;6.038;2024-02-14T03:20:46;99719.22;;;8.37;100.00
59419;BME280;45224;50.904;6.038;2024-02-14T03:22:17;99707.09;;;8.23;100.00
59419;BME280;45224;50.904;6.038;2024-02-14T03:23:49;99719.03;;;8.12;100.00
59419;BME280;45224;50.904;6.038;2024-02-14T03:25:20;99713.13;;;8.24;100.00
59419;BME280;45224;50.904;6.038;2024-02-14T03:26:51;99720.00;;;8.28;100.00
59419;BME280;45224;50.904;6.038;2024-02-14T03:28:23;99714.81;;;8.25;100.00
59419;BME280;45224;50.904;6.038;2024-02-14T03:29:55;99705.34;;;8.19;100.00
59419;BME280;45224;50.904;6.038;2024-02-14T03:31:28;99706.16;;;8.17;100.00
59419;BME280;45224;50.904;6.038;2024-02-14T03:32:59;99714.00;;;8.28;100.00
59419;BME280;45224;50.904;6.038;2024-02-14T03:34:29;99723.47;;;8.29;100.00
59419;BME280;45224;50.904;6.038;2024-02-14T03:36:00;99713.88;;;8.15;100.00
59419;BME280;45224;50.904;6.038;2024-02-14T03:37:32;99716.53;;;8.25;100.00
59419;BME280;45224;50.904;6.038;2024-02-14T03:39:03;99716.53;;;8.23;100.00
59419;BME280;45224;50.904;6.038;2024-02-14T03:40:34;99717.41;;;8.23;100.00
59419;BME280;45224;50.904;6.038;2024-02-14T03:42:06;99726.84;;;8.26;100.00
59419;BME280;45224;50.904;6.038;2024-02-14T03:43:37;99716.50;;;8.21;100.00
59419;BME280;45224;50.904;6.038;2024-02-14T03:45:08;99720.81;;;8.22;100.00
59419;BME280;45224;50.904;6.038;2024-02-14T03:46:39;99726.03;;;8.29;100.00
59419;BME280;45224;50.904;6.038;2024-02-14T03:48:09;99731.97;;;8.21;100.00
59419;BME280;45224;50.904;6.038;2024-02-14T03:49:42;99708.75;;;8.18;100.00
59419;BME280;45224;50.904;6.038;2024-02-14T03:51:12;99727.72;;;8.23;100.00
59419;BME280;45224;50.904;6.038;2024-02-14T03:52:43;99732.06;;;8.32;100.00
59419;BME280;45224;50.904;6.038;2024-02-14T03:54:13;99729.44;;;8.28;100.00
59419;BME280;45224;50.904;6.038;2024-02-14T03:55:44;99734.56;;;8.25;100.00
59419;BME280;45224;50.904;6.038;2024-02-14T03:57:14;99735.44;;;8.22;100.00
59419;BME280;45224;50.904;6.038;2024-02-14T03:58:45;99736.31;;;8.26;100.00
59419;BME280;45224;50.904;6.038;2024-02-14T04:00:17;99732.81;;;8.17;100.00
59419;BME280;45224;50.904;6.038;2024-02-14T04:01:48;99736.34;;;8.29;100.00
59419;BME280;45224;50.904;6.038;2024-02-14T04:03:18;99730.34;;;8.33;100.00
59419;BME280;45224;50.904;6.038;2024-02-14T04:04:49;99736.31;;;8.26;100.00
59419;BME280;45224;50.904;6.038;2024-02-14T04:06:19;99725.13;;;8.22;100.00
59419;BME280;45224;50.904;6.038;2024-02-14T04:07:50;99721.66;;;8.21;100.00
59419;BME280;45224;50.904;6.038;2024-02-14T04:09:23;99723.41;;;8.22;100.00
59419;BME280;45224;50.904;6.038;2024-02-14T04:10:53;99715.69;;;8.26;100.00
59419;BME280;45224;50.904;6.038;2024-02-14T04:12:25;99712.25;;;8.27;100.00
59419;BME280;45224;50.904;6.038;2024-02-14T04:13:55;99726.88;;;8.28;100.00
59419;BME280;45224;50.904;6.038;2024-02-14T04:15:25;99715.66;;;8.21;100.00
59419;BME280;45224;50.904;6.038;2024-02-14T04:16:56;99716.50;;;8.20;100.00
59419;BME280;45224;50.904;6.038;2024-02-14T04:18:26;99715.66;;;8.19;100.00
59419;BME280;45224;50.904;6.038;2024-02-14T04:19:57;99732.84;;;8.20;100.00
59419;BME280;45224;50.904;6.038;2024-02-14T04:21:28;99724.22;;;8.18;100.00
59419;BME280;45224;50.904;6.038;2024-02-14T04:22:58;99738.75;;;8.13;100.00
59419;BME280;45224;50.904;6.038;2024-02-14T04:24:29;99734.47;;;8.15;100.00
59419;BME280;45224;50.904;6.038;2024-02-14T04:25:59;99745.72;;;8.22;100.00
59419;BME280;45224;50.904;6.038;2024-02-14T04:27:30;99743.16;;;8.23;100.00
59419;BME280;45224;50.904;6.038;2024-02-14T04:29:01;99750.91;;;8.27;100.00
59419;BME280;45224;50.904;6.038;2024-02-14T04:30:32;99750.03;;;8.25;100.00
59419;BME280;45224;50.904;6.038;2024-02-14T04:32:02;99747.34;;;8.15;100.00
59419;BME280;45224;50.904;6.038;2024-02-14T04:33:33;99744.88;;;8.26;100.00
59419;BME280;45224;50.904;6.038;2024-02-14T04:35:03;99751.72;;;8.22;100.00
59419;BME280;45224;50.904;6.038;2024-02-14T04:36:34;99753.50;;;8.30;100.00
59419;BME280;45224;50.904;6.038;2024-02-14T04:38:05;99757.00;;;8.35;100.00
59419;BME280;45224;50.904;6.038;2024-02-14T04:39:36;99762.13;;;8.32;100.00
59419;BME280;45224;50.904;6.038;2024-02-14T04:41:06;99753.56;;;8.37;100.00
59419;BME280;45224;50.904;6.038;2024-02-14T04:42:37;99750.13;;;8.37;100.00
59419;BME280;45224;50.904;6.038;2024-02-14T04:44:07;99750.09;;;8.31;100.00
59419;BME280;45224;50.904;6.038;2024-02-14T04:45:38;99746.69;;;8.38;100.00
59419;BME280;45224;50.904;6.038;2024-02-14T04:47:09;99752.72;;;8.38;100.00
59419;BME280;45224;50.904;6.038;2024-02-14T04:48:40;99755.31;;;8.40;100.00
59419;BME280;45224;50.904;6.038;2024-02-14T04:50:11;99755.38;;;8.43;100.00
59419;BME280;45224;50.904;6.038;2024-02-14T04:51:42;99751.94;;;8.44;100.00
59419;BME280;45224;50.904;6.038;2024-02-14T04:53:12;99756.06;;;8.28;100.00
59419;BME280;45224;50.904;6.038;2024-02-14T04:54:43;99756.94;;;8.27;100.00
59419;BME280;45224;50.904;6.038;2024-02-14T04:56:13;99762.13;;;8.32;100.00
59419;BME280;45224;50.904;6.038;2024-02-14T04:57:44;99763.78;;;8.27;100.00
59419;BME280;45224;50.904;6.038;2024-02-14T04:59:14;99771.56;;;8.33;100.00
59419;BME280;45224;50.904;6.038;2024-02-14T05:00:45;99781.06;;;8.37;100.00
59419;BME280;45224;50.904;6.038;2024-02-14T05:02:15;99777.63;;;8.41;100.00
59419;BME280;45224;50.904;6.038;2024-02-14T05:03:46;99780.22;;;8.41;100.00
59419;BME280;45224;50.904;6.038;2024-02-14T05:05:16;99771.66;;;8.42;100.00
59419;BME280;45224;50.904;6.038;2024-02-14T05:06:47;99775.03;;;8.35;100.00
59419;BME280;45224;50.904;6.038;2024-02-14T05:08:17;99777.59;;;8.35;100.00
59419;BME280;45224;50.904;6.038;2024-02-14T05:09:47;99787.03;;;8.34;100.00
59419;BME280;45224;50.904;6.038;2024-02-14T05:11:21;99784.38;;;8.23;100.00
59419;BME280;45224;50.904;6.038;2024-02-14T05:12:52;99786.09;;;8.26;100.00
59419;BME280;45224;50.904;6.038;2024-02-14T05:14:22;99777.50;;;8.22;100.00
59419;BME280;45224;50.904;6.038;2024-02-14T05:15:53;99777.44;;;8.16;100.00
59419;BME280;45224;50.904;6.038;2024-02-14T05:17:24;99783.50;;;8.25;100.00
59419;BME280;45224;50.904;6.038;2024-02-14T05:18:54;99779.25;;;8.30;100.00
59419;BME280;45224;50.904;6.038;2024-02-14T05:20:25;99789.59;;;8.33;100.00
59419;BME280;45224;50.904;6.038;2024-02-14T05:21:55;99789.59;;;8.33;100.00
59419;BME280;45224;50.904;6.038;2024-02-14T05:23:25;99787.84;;;8.29;100.00
59419;BME280;45224;50.904;6.038;2024-02-14T05:24:56;99779.28;;;8.33;100.00
59419;BME280;45224;50.904;6.038;2024-02-14T05:26:26;99782.72;;;8.32;100.00
59419;BME280;45224;50.904;6.038;2024-02-14T05:27:57;99780.09;;;8.27;100.00
59419;BME280;45224;50.904;6.038;2024-02-14T05:29:28;99781.00;;;8.31;100.00
59419;BME280;45224;50.904;6.038;2024-02-14T05:31:01;99785.25;;;8.27;100.00
59419;BME280;45224;50.904;6.038;2024-02-14T05:32:33;99780.13;;;8.29;100.00
59419;BME280;45224;50.904;6.038;2024-02-14T05:34:03;99784.44;;;8.33;100.00
59419;BME280;45224;50.904;6.038;2024-02-14T05:35:34;99782.75;;;8.33;100.00
59419;BME280;45224;50.904;6.038;2024-02-14T05:37:04;99775.03;;;8.35;100.00
59419;BME280;45224;50.904;6.038;2024-02-14T05:38:35;99773.28;;;8.32;100.00
59419;BME280;45224;50.904;6.038;2024-02-14T05:40:06;99782.69;;;8.29;100.00
59419;BME280;45224;50.904;6.038;2024-02-14T05:41:37;99775.78;;;8.25;100.00
59419;BME280;45224;50.904;6.038;2024-02-14T05:43:07;99777.59;;;8.32;100.00
59419;BME280;45224;50.904;6.038;2024-02-14T05:44:38;99774.06;;;8.27;100.00
59419;BME280;45224;50.904;6.038;2024-02-14T05:46:10;99781.00;;;8.31;100.00
59419;BME280;45224;50.904;6.038;2024-02-14T05:47:42;99779.31;;;8.36;100.00
59419;BME280;45224;50.904;6.038;2024-02-14T05:49:13;99779.38;;;8.42;100.00
59419;BME280;45224;50.904;6.038;2024-02-14T05:50:43;99783.63;;;8.35;100.00
59419;BME280;45224;50.904;6.038;2024-02-14T05:52:14;99783.66;;;8.40;100.00
59419;BME280;45224;50.904;6.038;2024-02-14T05:53:46;99786.28;;;8.43;100.00
59419;BME280;45224;50.904;6.038;2024-02-14T05:55:16;99790.63;;;8.47;100.00
59419;BME280;45224;50.904;6.038;2024-02-14T05:56:47;99781.16;;;8.43;100.00
59419;BME280;45224;50.904;6.038;2024-02-14T05:58:17;99788.81;;;8.40;100.00
59419;BME280;45224;50.904;6.038;2024-02-14T05:59:48;99783.66;;;8.38;100.00
59419;BME280;45224;50.904;6.038;2024-02-14T06:01:18;99781.09;;;8.40;100.00
59419;BME280;45224;50.904;6.038;2024-02-14T06:02:48;99781.94;;;8.42;100.00
59419;BME280;45224;50.904;6.038;2024-02-14T06:04:20;99789.78;;;8.48;100.00
59419;BME280;45224;50.904;6.038;2024-02-14T06:05:50;99788.94;;;8.54;100.00
59419;BME280;45224;50.904;6.038;2024-02-14T06:07:20;99780.16;;;8.36;100.00
59419;BME280;45224;50.904;6.038;2024-02-14T06:08:51;99782.78;;;8.41;100.00
59419;BME280;45224;50.904;6.038;2024-02-14T06:10:21;99777.59;;;8.35;100.00
59419;BME280;45224;50.904;6.038;2024-02-14T06:11:52;99780.22;;;8.41;100.00
59419;BME280;45224;50.904;6.038;2024-02-14T06:13:23;99783.66;;;8.38;100.00
59419;BME280;45224;50.904;6.038;2024-02-14T06:14:53;99770.72;;;8.34;100.00
59419;BME280;45224;50.904;6.038;2024-02-14T06:16:24;99776.78;;;8.39;100.00
59419;BME280;45224;50.904;6.038;2024-02-14T06:17:54;99790.53;;;8.41;100.00
59419;BME280;45224;50.904;6.038;2024-02-14T06:19:24;99777.59;;;8.32;100.00
59419;BME280;45224;50.904;6.038;2024-02-14T06:20:55;99778.47;;;8.35;100.00
59419;BME280;45224;50.904;6.038;2024-02-14T06:22:25;99776.78;;;8.40;100.00
59419;BME280;45224;50.904;6.038;2024-02-14T06:23:56;99783.59;;;8.34;100.00
59419;BME280;45224;50.904;6.038;2024-02-14T06:25:28;99787.00;;;8.31;100.00
59419;BME280;45224;50.904;6.038;2024-02-14T06:26:59;99781.84;;;8.31;100.00
59419;BME280;45224;50.904;6.038;2024-02-14T06:28:29;99783.59;;;8.32;100.00
59419;BME280;45224;50.904;6.038;2024-02-14T06:30:00;99793.06;;;8.38;100.00
59419;BME280;45224;50.904;6.038;2024-02-14T06:31:30;99793.09;;;8.41;100.00
59419;BME280;45224;50.904;6.038;2024-02-14T06:33:01;99794.91;;;8.47;100.00
59419;BME280;45224;50.904;6.038;2024-02-14T06:34:32;99800.91;;;8.46;100.00
59419;BME280;45224;50.904;6.038;2024-02-14T06:36:03;99800.91;;;8.46;100.00
59419;BME280;45224;50.904;6.038;2024-02-14T06:37:34;99800.81;;;8.39;100.00
59419;BME280;45224;50.904;6.038;2024-02-14T06:39:06;99806.03;;;8.44;100.00
59419;BME280;45224;50.904;6.038;2024-02-14T06:40:37;99803.41;;;8.43;100.00
59419;BME280;45224;50.904;6.038;2024-02-14T06:42:07;99803.53;;;8.50;100.00
59419;BME280;45224;50.904;6.038;2024-02-14T06:43:37;99815.59;;;8.54;100.00
59419;BME280;45224;50.904;6.038;2024-02-14T06:45:09;99806.97;;;8.52;100.00
59419;BME280;45224;50.904;6.038;2024-02-14T06:46:39;99812.16;;;8.55;100.00
59419;BME280;45224;50.904;6.038;2024-02-14T06:48:11;99810.47;;;8.57;100.00
59419;BME280;45224;50.904;6.038;2024-02-14T06:49:42;99822.44;;;8.52;100.00
59419;BME280;45224;50.904;6.038;2024-02-14T06:51:12;99822.44;;;8.52;100.00
59419;BME280;45224;50.904;6.038;2024-02-14T06:52:43;99826.84;;;8.63;100.00
59419;BME280;45224;50.904;6.038;2024-02-14T06:54:13;99822.53;;;8.65;100.00
59419;BME280;45224;50.904;6.038;2024-02-14T06:55:44;99820.88;;;8.70;100.00
59419;BME280;45224;50.904;6.038;2024-02-14T06:57:14;99824.28;;;8.64;100.00
59419;BME280;45224;50.904;6.038;2024-02-14T06:58:45;99827.75;;;8.69;100.00
59419;BME280;45224;50.904;6.038;2024-02-14T07:00:16;99815.63;;;8.61;100.00
59419;BME280;45224;50.904;6.038;2024-02-14T07:01:47;99820.81;;;8.64;100.00
59419;BME280;45224;50.904;6.038;2024-02-14T07:03:17;99825.19;;;8.71;100.00
59419;BME280;45224;50.904;6.038;2024-02-14T07:04:48;99823.50;;;8.76;100.00
59419;BME280;45224;50.904;6.038;2024-02-14T07:06:19;99815.69;;;8.67;100.00
59419;BME280;45224;50.904;6.038;2024-02-14T07:07:49;99816.56;;;8.70;100.00
59419;BME280;45224;50.904;6.038;2024-02-14T07:09:20;99824.31;;;8.72;100.00
59419;BME280;45224;50.904;6.038;2024-02-14T07:10:50;99820.88;;;8.73;100.00
59419;BME280;45224;50.904;6.038;2024-02-14T07:12:21;99821.72;;;8.70;100.00
59419;BME280;45224;50.904;6.038;2024-02-14T07:13:51;99819.16;;;8.72;100.00
59419;BME280;45224;50.904;6.038;2024-02-14T07:15:22;99820.91;;;8.76;100.00
59419;BME280;45224;50.904;6.038;2024-02-14T07:16:55;99821.72;;;8.72;100.00
59419;BME280;45224;50.904;6.038;2024-02-14T07:18:26;99825.22;;;8.77;100.00
59419;BME280;45224;50.904;6.038;2024-02-14T07:19:56;99832.97;;;8.77;100.00
59419;BME280;45224;50.904;6.038;2024-02-14T07:21:27;99832.09;;;8.78;100.00
59419;BME280;45224;50.904;6.038;2024-02-14T07:22:57;99836.41;;;8.79;100.00
59419;BME280;45224;50.904;6.038;2024-02-14T07:24:27;99830.44;;;8.85;100.00
59419;BME280;45224;50.904;6.038;2024-02-14T07:25:58;99833.00;;;8.86;100.00
59419;BME280;45224;50.904;6.038;2024-02-14T07:27:28;99835.63;;;8.89;100.00
59419;BME280;45224;50.904;6.038;2024-02-14T07:28:59;99842.50;;;8.90;100.00
59419;BME280;45224;50.904;6.038;2024-02-14T07:30:30;99839.03;;;8.85;100.00
59419;BME280;45224;50.904;6.038;2024-02-14T07:32:02;99834.66;;;8.76;100.00
59419;BME280;45224;50.904;6.038;2024-02-14T07:33:32;99827.84;;;8.83;100.00
59419;BME280;45224;50.904;6.038;2024-02-14T07:35:03;99836.44;;;8.82;100.00
59419;BME280;45224;50.904;6.038;2024-02-14T07:36:35;99833.00;;;8.86;100.00
59419;BME280;45224;50.904;6.038;2024-02-14T07:38:05;99833.94;;;8.91;100.00
59419;BME280;45224;50.904;6.038;2024-02-14T07:39:36;99826.22;;;8.98;100.00
59419;BME280;45224;50.904;6.038;2024-02-14T07:41:06;99833.09;;;8.97;100.00
59419;BME280;45224;50.904;6.038;2024-02-14T07:42:37;99835.72;;;9.00;100.00
59419;BME280;45224;50.904;6.038;2024-02-14T07:44:07;99834.03;;;9.05;100.00
59419;BME280;45224;50.904;6.038;2024-02-14T07:45:38;99830.59;;;9.05;100.00
59419;BME280;45224;50.904;6.038;2024-02-14T07:47:08;99833.97;;;9.01;100.00
59419;BME280;45224;50.904;6.038;2024-02-14T07:48:39;99844.34;;;9.08;100.00
59419;BME280;45224;50.904;6.038;2024-02-14T07:50:10;99841.81;;;9.11;100.00
59419;BME280;45224;50.904;6.038;2024-02-14T07:51:41;99845.25;;;9.15;100.00
59419;BME280;45224;50.904;6.038;2024-02-14T07:53:11;99844.44;;;9.18;100.00
59419;BME280;45224;50.904;6.038;2024-02-14T07:54:42;99834.94;;;9.17;100.00
59419;BME280;45224;50.904;6.038;2024-02-14T07:56:12;99841.84;;;9.16;100.00
59419;BME280;45224;50.904;6.038;2024-02-14T07:57:44;99846.13;;;9.19;100.00
59419;BME280;45224;50.904;6.038;2024-02-14T07:59:14;99850.47;;;9.21;100.00
59419;BME280;45224;50.904;6.038;2024-02-14T08:00:45;99849.63;;;9.28;100.00